createdAt,value
2022-12-01T00:03:58.031Z,2.80
2022-12-01T00:09:20.224Z,2.82
2022-12-01T00:14:23.355Z,2.79
2022-12-01T00:19:26.361Z,2.84
2022-12-01T00:24:30.513Z,2.81
2022-12-01T00:29:33.244Z,2.76
2022-12-01T00:34:37.871Z,2.67
2022-12-01T00:39:42.019Z,2.64
2022-12-01T00:44:44.759Z,2.58
2022-12-01T00:49:48.002Z,2.59
2022-12-01T00:54:52.283Z,2.61
2022-12-01T00:59:55.248Z,2.53
2022-12-01T01:04:57.973Z,2.48
2022-12-01T01:10:02.252Z,2.54
2022-12-01T01:15:05.736Z,2.58
2022-12-01T01:20:09.749Z,2.62
2022-12-01T01:25:13.839Z,2.67
2022-12-01T01:30:17.039Z,2.56
2022-12-01T01:35:19.963Z,2.46
2022-12-01T01:40:24.251Z,2.47
2022-12-01T01:45:30.610Z,2.40
2022-12-01T01:50:33.495Z,2.29
2022-12-01T01:55:38.070Z,2.10
2022-12-01T02:00:43.894Z,2.03
2022-12-01T02:05:47.487Z,2.00
2022-12-01T02:11:23.397Z,1.91
2022-12-01T02:16:35.645Z,1.92
2022-12-01T02:21:52.662Z,1.94
2022-12-01T02:27:03.269Z,1.92
2022-12-01T02:32:16.662Z,1.83
2022-12-01T02:37:28.501Z,1.76
2022-12-01T02:42:51.832Z,1.77
2022-12-01T02:48:01.068Z,1.76
2022-12-01T02:53:07.412Z,1.73
2022-12-01T02:58:14.757Z,1.68
2022-12-01T03:03:36.105Z,1.68
2022-12-01T03:08:49.164Z,1.73
2022-12-01T03:14:03.028Z,1.73
2022-12-01T03:19:11.063Z,1.72
2022-12-01T03:24:15.994Z,1.67
2022-12-01T03:29:25.937Z,1.71
2022-12-01T03:34:37.117Z,1.69
2022-12-01T03:39:42.433Z,1.70
2022-12-01T03:44:49.900Z,1.77
2022-12-01T03:49:55.322Z,1.73
2022-12-01T03:55:11.903Z,1.70
2022-12-01T04:00:16.953Z,1.73
2022-12-01T04:05:25.179Z,1.75
2022-12-01T04:10:28.400Z,1.78
2022-12-01T04:15:31.118Z,1.73
2022-12-01T04:20:35.527Z,1.69
2022-12-01T04:25:38.270Z,1.62
2022-12-01T04:30:41.022Z,1.60
2022-12-01T04:35:45.113Z,1.63
2022-12-01T04:40:47.876Z,1.67
2022-12-01T04:45:50.764Z,1.73
2022-12-01T04:50:54.851Z,1.81
2022-12-01T04:55:57.697Z,1.76
2022-12-01T05:01:02.669Z,1.74
2022-12-01T05:06:09.020Z,1.76
2022-12-01T05:11:13.132Z,1.73
2022-12-01T05:16:17.710Z,1.76
2022-12-01T05:21:21.858Z,1.78
2022-12-01T05:26:24.886Z,1.75
2022-12-01T05:31:27.682Z,1.72
2022-12-01T05:36:31.902Z,1.76
2022-12-01T05:41:34.692Z,1.78
2022-12-01T05:46:37.409Z,1.81
2022-12-01T05:51:41.540Z,1.83
2022-12-01T05:56:44.694Z,1.85
2022-12-01T06:01:47.510Z,1.84
2022-12-01T06:06:51.676Z,1.77
2022-12-01T06:11:54.441Z,1.74
2022-12-01T06:16:57.226Z,1.64
2022-12-01T06:22:01.398Z,1.59
2022-12-01T06:27:04.223Z,1.50
2022-12-01T06:32:07.186Z,1.53
2022-12-01T06:37:11.447Z,1.60
2022-12-01T06:42:14.204Z,1.65
2022-12-01T06:47:16.974Z,1.64
2022-12-01T06:52:21.051Z,1.70
2022-12-01T06:57:23.797Z,1.68
2022-12-01T07:02:26.860Z,1.66
2022-12-01T07:07:31.032Z,1.68
2022-12-01T07:12:34.308Z,1.67
2022-12-01T07:17:37.380Z,1.66
2022-12-01T07:22:42.980Z,1.64
2022-12-01T07:27:45.736Z,1.64
2022-12-01T07:32:48.486Z,1.68
2022-12-01T07:37:56.774Z,1.64
2022-12-01T07:42:59.503Z,1.57
2022-12-01T07:48:02.240Z,1.52
2022-12-01T07:53:06.839Z,1.48
2022-12-01T07:58:09.609Z,1.52
2022-12-01T08:03:12.431Z,1.53
2022-12-01T08:08:16.631Z,1.51
2022-12-01T08:13:19.870Z,1.55
2022-12-01T08:18:22.903Z,1.63
2022-12-01T08:23:27.029Z,1.59
2022-12-01T08:28:30.241Z,1.56
2022-12-01T08:33:32.977Z,1.59
2022-12-01T08:38:37.203Z,1.68
2022-12-01T08:43:57.384Z,1.64
2022-12-01T08:49:01.953Z,1.57
2022-12-01T08:54:06.225Z,1.66
2022-12-01T08:59:09.437Z,1.66
2022-12-01T09:04:12.150Z,1.79
2022-12-01T09:09:18.460Z,1.89
2022-12-01T09:14:23.181Z,1.75
2022-12-01T09:19:25.904Z,1.80
2022-12-01T09:24:30.380Z,1.75
2022-12-01T09:29:33.564Z,1.81
2022-12-01T09:34:36.287Z,1.93
2022-12-01T09:39:40.360Z,1.88
2022-12-01T09:44:47.548Z,1.81
2022-12-01T09:49:59.520Z,1.80
2022-12-01T09:55:03.751Z,1.76
2022-12-01T10:00:12.532Z,1.79
2022-12-01T10:05:19.576Z,1.78
2022-12-01T10:10:28.852Z,1.75
2022-12-01T10:15:40.658Z,1.72
2022-12-01T10:20:49.985Z,1.74
2022-12-01T10:25:58.456Z,1.73
2022-12-01T10:31:10.765Z,1.68
2022-12-01T10:36:13.826Z,1.75
2022-12-01T10:41:25.622Z,1.87
2022-12-01T10:46:38.546Z,1.91
2022-12-01T10:51:53.117Z,1.93
2022-12-01T10:56:58.431Z,1.94
2022-12-01T11:02:03.819Z,2.01
2022-12-01T11:07:07.429Z,1.98
2022-12-01T11:12:16.220Z,1.99
2022-12-01T11:17:32.406Z,2.00
2022-12-01T11:22:35.173Z,2.09
2022-12-01T11:27:51.407Z,2.09
2022-12-01T11:32:57.089Z,1.93
2022-12-01T11:38:32.198Z,1.87
2022-12-01T11:43:30.650Z,1.82
2022-12-01T11:48:36.269Z,1.82
2022-12-01T11:53:40.538Z,1.84
2022-12-01T11:58:46.693Z,1.87
2022-12-01T12:03:59.635Z,1.85
2022-12-01T12:09:24.422Z,1.87
2022-12-01T12:14:46.454Z,1.97
2022-12-01T12:20:08.180Z,2.01
2022-12-01T12:25:24.251Z,2.02
2022-12-01T12:30:30.719Z,1.98
2022-12-01T12:35:45.407Z,2.02
2022-12-01T12:40:55.808Z,2.06
2022-12-01T12:46:07.412Z,2.07
2022-12-01T12:51:16.832Z,2.06
2022-12-01T12:56:23.563Z,2.00
2022-12-01T13:01:32.801Z,1.95
2022-12-01T13:06:41.394Z,1.92
2022-12-01T13:11:48.586Z,1.85
2022-12-01T13:16:57.287Z,1.86
2022-12-01T13:22:01.775Z,1.84
2022-12-01T13:27:14.177Z,1.84
2022-12-01T13:32:32.647Z,1.82
2022-12-01T13:37:39.106Z,1.82
2022-12-01T13:42:42.205Z,1.83
2022-12-01T13:47:53.805Z,1.74
2022-12-01T13:53:11.725Z,1.68
2022-12-01T13:58:43.878Z,1.69
2022-12-01T14:03:57.068Z,1.76
2022-12-01T14:09:02.502Z,1.73
2022-12-01T14:14:26.038Z,1.63
2022-12-01T14:19:35.448Z,1.56
2022-12-01T14:24:42.259Z,1.57
2022-12-01T14:29:45.040Z,1.60
2022-12-01T14:34:52.653Z,1.62
2022-12-01T14:39:59.493Z,1.59
2022-12-01T14:45:05.280Z,1.58
2022-12-01T14:50:16.106Z,1.61
2022-12-01T14:55:22.001Z,1.56
2022-12-01T15:00:25.813Z,1.52
2022-12-01T15:05:32.504Z,1.48
2022-12-01T15:10:35.526Z,1.55
2022-12-01T15:15:38.261Z,1.64
2022-12-01T15:20:47.694Z,1.63
2022-12-01T15:25:50.764Z,1.62
2022-12-01T15:30:55.884Z,1.64
2022-12-01T15:36:01.536Z,1.62
2022-12-01T15:41:28.552Z,1.63
2022-12-01T15:46:31.940Z,1.56
2022-12-01T15:51:36.436Z,1.56
2022-12-01T15:56:41.963Z,1.52
2022-12-01T16:01:45.832Z,1.51
2022-12-01T16:18:29.428Z,1.51
2022-12-01T16:23:33.742Z,1.51
2022-12-01T16:28:36.594Z,1.60
2022-12-01T16:33:40.682Z,1.74
2022-12-01T16:38:43.731Z,1.70
2022-12-01T16:43:59.429Z,1.75
2022-12-01T16:49:10.643Z,1.76
2022-12-01T16:54:13.445Z,1.81
2022-12-01T16:59:16.193Z,1.87
2022-12-01T17:04:20.299Z,1.89
2022-12-01T17:09:23.703Z,1.91
2022-12-01T17:14:26.493Z,2.02
2022-12-01T17:19:30.631Z,2.06
2022-12-01T17:24:33.380Z,2.15
2022-12-01T17:29:36.129Z,2.32
2022-12-01T17:34:40.288Z,2.53
2022-12-01T17:39:43.143Z,2.56
2022-12-01T17:44:45.928Z,2.60
2022-12-01T17:49:50.011Z,2.70
2022-12-01T17:54:54.958Z,2.73
2022-12-01T17:59:57.683Z,2.76
2022-12-01T18:05:01.843Z,2.83
2022-12-01T18:10:04.932Z,2.91
2022-12-01T18:15:08.717Z,3.05
2022-12-01T18:20:13.736Z,3.11
2022-12-01T18:25:16.525Z,3.23
2022-12-01T18:30:19.353Z,3.37
2022-12-01T18:35:26.285Z,3.34
2022-12-01T18:40:36.485Z,3.34
2022-12-01T18:45:40.503Z,3.36
2022-12-01T18:50:44.681Z,3.31
2022-12-01T18:55:47.474Z,3.35
2022-12-01T19:00:50.309Z,3.34
2022-12-01T19:05:54.505Z,3.22
2022-12-01T19:11:01.073Z,3.14
2022-12-01T19:16:06.963Z,3.13
2022-12-01T19:21:13.191Z,3.03
2022-12-01T19:26:18.761Z,2.85
2022-12-01T19:31:25.166Z,2.82
2022-12-01T19:36:29.579Z,2.82
2022-12-01T19:41:32.318Z,2.84
2022-12-01T19:46:35.087Z,2.80
2022-12-01T19:51:41.986Z,2.60
2022-12-01T19:56:46.467Z,2.53
2022-12-01T20:01:49.847Z,2.54
2022-12-01T20:06:54.376Z,2.55
2022-12-01T20:11:57.468Z,2.58
2022-12-01T20:17:00.274Z,2.61
2022-12-01T20:22:04.474Z,2.62
2022-12-01T20:27:07.360Z,2.53
2022-12-01T20:32:11.188Z,2.55
2022-12-01T20:37:15.888Z,2.55
2022-12-01T20:42:22.365Z,2.60
2022-12-01T20:47:25.199Z,2.62
2022-12-01T20:52:29.607Z,2.65
2022-12-01T20:57:32.369Z,2.68
2022-12-01T21:02:35.184Z,2.77
2022-12-01T21:07:39.577Z,2.75
2022-12-01T21:13:01.749Z,2.82
2022-12-01T21:18:10.373Z,2.90
2022-12-01T21:23:16.885Z,2.88
2022-12-01T21:28:24.044Z,2.80
2022-12-01T21:33:29.380Z,2.71
2022-12-01T21:38:34.053Z,2.71
2022-12-01T21:43:38.661Z,2.69
2022-12-01T21:48:41.953Z,2.67
2022-12-01T21:53:46.472Z,2.63
2022-12-01T21:58:50.020Z,2.57
2022-12-01T22:03:54.160Z,2.53
2022-12-01T22:09:03.331Z,2.51
2022-12-01T22:14:13.850Z,2.51
2022-12-01T22:19:29.688Z,2.45
2022-12-01T22:24:40.437Z,2.42
2022-12-01T22:29:45.586Z,2.44
2022-12-01T22:34:53.766Z,2.42
2022-12-01T22:39:58.544Z,2.40
2022-12-01T22:45:02.355Z,2.36
2022-12-01T22:50:25.141Z,2.24
2022-12-01T22:55:29.262Z,2.15
2022-12-01T23:00:32.001Z,2.19
2022-12-01T23:05:35.492Z,2.16
2022-12-01T23:10:40.842Z,2.13
2022-12-01T23:15:46.812Z,2.19
2022-12-01T23:20:52.037Z,2.22
2022-12-01T23:25:57.076Z,2.23
2022-12-01T23:31:00.705Z,2.27
2022-12-01T23:36:13.519Z,2.24
2022-12-01T23:41:25.473Z,2.24
2022-12-01T23:46:29.677Z,2.17
2022-12-01T23:51:36.253Z,2.16
2022-12-01T23:56:40.365Z,2.18
